createdAt,value
2023-04-27T00:01:49.792Z,67.49
2023-04-27T00:04:16.756Z,67.42
2023-04-27T00:06:43.476Z,66.99
2023-04-27T00:09:09.958Z,67.79
2023-04-27T00:11:36.361Z,67.97
2023-04-27T00:14:03.047Z,67.81
2023-04-27T00:16:29.526Z,68.14
2023-04-27T00:18:55.932Z,67.86
2023-04-27T00:21:22.330Z,68.51
2023-04-27T00:23:48.784Z,67.56
2023-04-27T00:26:15.202Z,68.33
2023-04-27T00:28:45.068Z,68.48
2023-04-27T00:31:11.640Z,68.80
2023-04-27T00:33:38.078Z,68.51
2023-04-27T00:36:04.713Z,68.47
2023-04-27T00:38:31.191Z,68.69
2023-04-27T00:41:06.869Z,68.72
2023-04-27T00:43:41.235Z,68.74
2023-04-27T00:46:08.252Z,68.63
2023-04-27T00:48:35.642Z,69.03
2023-04-27T00:51:02.062Z,69.39
2023-04-27T00:53:28.525Z,68.92
2023-04-27T00:55:56.374Z,69.72
2023-04-27T00:58:23.026Z,69.31
2023-04-27T01:00:49.648Z,69.12
2023-04-27T01:03:16.436Z,69.82
2023-04-27T01:05:43.674Z,69.50
2023-04-27T01:08:10.408Z,69.67
2023-04-27T01:10:41.155Z,69.89
2023-04-27T01:13:10.145Z,70.38
2023-04-27T01:15:37.656Z,70.10
2023-04-27T01:18:04.481Z,70.37
2023-04-27T01:20:31.399Z,69.26
2023-04-27T01:22:58.554Z,69.48
2023-04-27T01:25:25.399Z,70.19
2023-04-27T01:27:51.856Z,69.38
2023-04-27T01:30:18.361Z,69.96
2023-04-27T01:32:44.797Z,70.10
2023-04-27T01:35:11.270Z,70.22
2023-04-27T01:37:37.701Z,70.47
2023-04-27T01:40:06.597Z,70.38
2023-04-27T01:42:33.038Z,70.78
2023-04-27T01:45:00.649Z,70.38
2023-04-27T01:47:27.705Z,71.13
2023-04-27T01:49:54.213Z,71.00
2023-04-27T01:52:20.660Z,71.29
2023-04-27T01:54:47.055Z,71.32
2023-04-27T01:57:14.349Z,70.68
2023-04-27T01:59:40.867Z,70.31
2023-04-27T02:02:07.503Z,70.80
2023-04-27T02:04:36.879Z,70.83
2023-04-27T02:07:03.519Z,71.49
2023-04-27T02:09:29.946Z,71.38
2023-04-27T02:11:56.399Z,70.75
2023-04-27T02:14:22.846Z,70.83
2023-04-27T02:16:49.374Z,70.87
2023-04-27T02:19:16.213Z,71.02
2023-04-27T02:21:43.635Z,71.56
2023-04-27T02:24:10.989Z,71.17
2023-04-27T02:26:37.731Z,70.54
2023-04-27T02:29:04.155Z,70.98
2023-04-27T02:31:31.258Z,70.98
2023-04-27T02:33:57.709Z,70.75
2023-04-27T02:36:24.976Z,71.41
2023-04-27T02:38:54.162Z,70.55
2023-04-27T02:41:20.797Z,70.87
2023-04-27T02:43:47.201Z,70.69
2023-04-27T02:46:14.004Z,71.13
2023-04-27T02:48:40.590Z,70.45
2023-04-27T02:51:07.052Z,71.48
2023-04-27T02:53:33.532Z,72.00
2023-04-27T02:56:00.081Z,71.79
2023-04-27T02:58:26.669Z,72.42
2023-04-27T03:00:56.944Z,72.88
2023-04-27T03:03:24.445Z,72.24
2023-04-27T03:05:51.085Z,73.26
2023-04-27T03:08:17.517Z,73.38
2023-04-27T03:10:43.929Z,73.13
2023-04-27T03:13:10.509Z,72.92
2023-04-27T03:15:36.931Z,72.88
2023-04-27T03:18:03.459Z,73.44
2023-04-27T03:20:29.930Z,72.20
2023-04-27T03:22:56.345Z,72.54
2023-04-27T03:25:22.849Z,72.81
2023-04-27T03:27:49.326Z,73.00
2023-04-27T03:30:15.838Z,72.70
2023-04-27T03:32:42.389Z,72.90
2023-04-27T03:35:09.719Z,72.77
2023-04-27T03:37:36.224Z,72.31
2023-04-27T03:40:02.663Z,73.00
2023-04-27T03:42:29.572Z,72.28
2023-04-27T03:44:56.185Z,72.72
2023-04-27T03:47:22.899Z,72.31
2023-04-27T03:49:49.411Z,71.98
2023-04-27T03:52:15.946Z,72.48
2023-04-27T03:54:42.400Z,72.36
2023-04-27T03:57:09.064Z,73.17
2023-04-27T03:59:35.834Z,73.32
2023-04-27T04:02:05.262Z,72.08
2023-04-27T04:04:32.247Z,72.75
2023-04-27T04:06:58.788Z,72.76
2023-04-27T04:09:25.299Z,72.93
2023-04-27T04:11:52.513Z,72.03
2023-04-27T04:14:19.249Z,72.24
2023-04-27T04:16:46.293Z,71.88
2023-04-27T04:19:13.152Z,71.98
2023-04-27T04:21:40.082Z,72.32
2023-04-27T04:24:08.003Z,72.87
2023-04-27T04:26:35.437Z,72.98
2023-04-27T04:29:01.941Z,73.17
2023-04-27T04:31:29.686Z,73.17
2023-04-27T04:33:56.740Z,73.31
2023-04-27T04:36:23.909Z,74.19
2023-04-27T04:38:54.859Z,74.02
2023-04-27T04:41:21.529Z,75.51
2023-04-27T04:43:49.370Z,74.12
2023-04-27T04:46:17.256Z,74.58
2023-04-27T04:48:43.694Z,75.29
2023-04-27T04:51:11.210Z,74.86
2023-04-27T04:53:38.121Z,75.27
2023-04-27T04:56:12.075Z,74.75
2023-04-27T04:58:39.107Z,75.82
2023-04-27T05:01:06.627Z,75.70
2023-04-27T05:03:33.412Z,75.37
2023-04-27T05:05:59.850Z,75.86
2023-04-27T05:08:26.690Z,75.75
2023-04-27T05:10:53.625Z,75.27
2023-04-27T05:13:20.865Z,76.14
2023-04-27T05:15:47.427Z,75.92
2023-04-27T05:18:13.879Z,75.16
2023-04-27T05:20:40.319Z,75.58
2023-04-27T05:23:06.726Z,75.20
2023-04-27T05:25:33.770Z,75.06
2023-04-27T05:28:00.502Z,74.85
2023-04-27T05:30:27.184Z,75.17
2023-04-27T05:32:53.619Z,75.07
2023-04-27T05:35:20.751Z,74.69
2023-04-27T05:37:47.187Z,74.09
2023-04-27T05:40:15.276Z,73.62
2023-04-27T05:42:41.711Z,74.12
2023-04-27T05:45:08.565Z,73.58
2023-04-27T05:47:35.192Z,73.55
2023-04-27T05:50:01.679Z,73.99
2023-04-27T05:52:30.915Z,72.28
2023-04-27T05:55:01.204Z,72.34
2023-04-27T05:57:27.996Z,71.14
2023-04-27T05:59:54.437Z,71.62
2023-04-27T06:02:21.712Z,71.72
2023-04-27T06:04:48.632Z,70.68
2023-04-27T06:07:16.375Z,70.75
2023-04-27T06:09:42.989Z,71.23
2023-04-27T06:12:09.815Z,71.00
2023-04-27T06:14:37.201Z,69.85
2023-04-27T06:17:04.308Z,69.46
2023-04-27T06:19:31.359Z,70.24
2023-04-27T06:21:57.794Z,69.49
2023-04-27T06:24:24.206Z,69.39
2023-04-27T06:26:51.064Z,68.64
2023-04-27T06:29:17.629Z,68.59
2023-04-27T06:31:44.097Z,68.05
2023-04-27T06:34:10.681Z,67.39
2023-04-27T06:36:37.099Z,67.29
2023-04-27T06:39:03.609Z,66.54
2023-04-27T06:41:30.025Z,66.30
2023-04-27T06:43:58.557Z,66.23
2023-04-27T06:46:26.069Z,66.46
2023-04-27T06:48:52.766Z,65.30
2023-04-27T06:51:19.194Z,64.69
2023-04-27T06:53:45.668Z,63.22
2023-04-27T06:56:12.093Z,62.76
2023-04-27T06:58:38.516Z,61.24
2023-04-27T07:01:05.278Z,60.96
2023-04-27T07:03:34.894Z,60.70
2023-04-27T07:06:01.675Z,59.71
2023-04-27T07:08:28.076Z,59.24
2023-04-27T07:10:56.067Z,59.39
2023-04-27T07:13:22.465Z,59.59
2023-04-27T07:15:53.785Z,60.19
2023-04-27T07:18:20.209Z,60.13
2023-04-27T07:20:46.619Z,59.22
2023-04-27T07:23:13.156Z,58.27
2023-04-27T07:25:40.246Z,58.24
2023-04-27T07:28:06.754Z,58.11
2023-04-27T07:30:36.900Z,58.55
2023-04-27T07:33:03.702Z,58.58
2023-04-27T07:35:30.243Z,58.70
2023-04-27T07:37:56.710Z,58.26
2023-04-27T07:40:24.195Z,57.84
2023-04-27T07:42:51.140Z,58.50
2023-04-27T07:45:17.994Z,59.00
2023-04-27T07:47:44.563Z,57.36
2023-04-27T07:50:11.316Z,56.45
2023-04-27T07:52:37.758Z,56.10
2023-04-27T07:55:04.673Z,56.43
2023-04-27T07:57:31.548Z,56.87
2023-04-27T07:59:58.090Z,56.46
2023-04-27T08:02:26.237Z,56.43
2023-04-27T08:04:53.224Z,56.42
2023-04-27T08:07:19.994Z,54.78
2023-04-27T08:09:50.889Z,55.27
2023-04-27T08:12:17.329Z,56.03
2023-04-27T08:14:43.777Z,56.31
2023-04-27T08:17:10.184Z,57.52
2023-04-27T08:19:37.381Z,55.67
2023-04-27T08:22:03.804Z,54.93
2023-04-27T08:24:30.225Z,54.62
2023-04-27T08:26:56.622Z,55.48
2023-04-27T08:29:27.736Z,55.95
2023-04-27T08:31:58.853Z,56.36
2023-04-27T08:34:25.701Z,56.31
2023-04-27T08:36:52.360Z,56.72
2023-04-27T08:39:18.984Z,56.47
2023-04-27T08:41:46.312Z,56.63
2023-04-27T08:44:12.850Z,56.47
2023-04-27T08:46:39.496Z,55.90
2023-04-27T08:49:07.419Z,56.42
2023-04-27T08:51:34.670Z,55.60
2023-04-27T08:54:01.380Z,54.69
2023-04-27T08:56:29.174Z,54.90
2023-04-27T08:58:57.050Z,55.26
2023-04-27T09:01:25.155Z,56.19
2023-04-27T09:04:00.244Z,57.11
2023-04-27T09:06:31.646Z,57.29
2023-04-27T09:08:59.640Z,57.04
2023-04-27T09:11:34.790Z,57.19
2023-04-27T09:14:03.751Z,56.21
2023-04-27T09:16:31.193Z,55.56
2023-04-27T09:18:58.620Z,55.91
2023-04-27T09:21:26.602Z,54.58
2023-04-27T09:23:53.612Z,54.85
2023-04-27T09:26:27.471Z,54.92
2023-04-27T09:28:58.481Z,56.46
2023-04-27T09:31:32.064Z,54.60
2023-04-27T09:33:58.718Z,55.44
2023-04-27T09:36:25.736Z,54.94
2023-04-27T09:38:52.952Z,54.01
2023-04-27T09:41:19.763Z,53.80
2023-04-27T09:43:47.215Z,54.62
2023-04-27T09:46:14.729Z,54.14
2023-04-27T09:48:41.703Z,53.12
2023-04-27T09:51:08.464Z,52.41
2023-04-27T09:53:44.750Z,50.75
2023-04-27T09:56:26.210Z,49.95
2023-04-27T09:59:33.944Z,49.59
2023-04-27T10:02:10.002Z,50.21
2023-04-27T10:05:09.500Z,49.95
2023-04-27T10:07:38.475Z,49.16
2023-04-27T10:10:05.670Z,46.34
2023-04-27T10:12:38.749Z,48.16
2023-04-27T10:15:17.940Z,46.88
2023-04-27T10:17:50.408Z,46.23
2023-04-27T10:20:17.815Z,46.82
2023-04-27T10:22:46.602Z,46.82
2023-04-27T10:25:25.515Z,46.83
2023-04-27T10:28:01.395Z,47.76
2023-04-27T10:30:36.504Z,48.31
2023-04-27T10:33:08.579Z,49.04
2023-04-27T10:35:40.507Z,47.71
2023-04-27T10:38:11.081Z,46.59
2023-04-27T10:40:38.754Z,47.55
2023-04-27T10:43:16.210Z,46.39
2023-04-27T10:45:43.879Z,44.39
2023-04-27T10:48:14.318Z,43.45
2023-04-27T10:50:41.461Z,43.22
2023-04-27T10:53:08.500Z,43.21
2023-04-27T10:55:35.554Z,43.43
2023-04-27T10:58:02.496Z,43.81
2023-04-27T11:00:44.006Z,44.07
2023-04-27T11:03:22.426Z,44.84
2023-04-27T11:05:58.552Z,43.16
2023-04-27T11:08:24.957Z,41.22
2023-04-27T11:10:52.092Z,41.46
2023-04-27T11:13:23.326Z,41.40
2023-04-27T11:15:51.169Z,42.39
2023-04-27T11:18:19.339Z,42.66
2023-04-27T11:20:49.571Z,42.58
2023-04-27T11:23:36.761Z,42.10
2023-04-27T11:26:17.053Z,42.59
2023-04-27T11:28:45.697Z,42.61
2023-04-27T11:31:12.410Z,43.23
2023-04-27T11:33:41.460Z,43.75
2023-04-27T11:36:18.760Z,44.19
2023-04-27T11:38:45.888Z,43.70
2023-04-27T11:41:12.563Z,43.84
2023-04-27T11:43:43.312Z,42.64
2023-04-27T11:46:11.006Z,42.95
2023-04-27T11:48:38.373Z,42.32
2023-04-27T11:51:05.827Z,43.15
2023-04-27T11:53:36.911Z,42.95
2023-04-27T11:56:10.977Z,43.41
2023-04-27T11:58:38.865Z,43.64
2023-04-27T12:01:06.746Z,41.69
2023-04-27T12:03:33.953Z,43.12
2023-04-27T12:06:16.163Z,42.39
2023-04-27T12:08:47.275Z,41.78
2023-04-27T12:11:13.688Z,41.96
2023-04-27T12:13:40.411Z,41.82
2023-04-27T12:16:06.946Z,43.18
2023-04-27T12:18:33.470Z,41.90
2023-04-27T12:21:03.098Z,42.35
2023-04-27T12:23:29.999Z,42.66
2023-04-27T12:25:56.537Z,44.48
2023-04-27T12:28:23.380Z,44.10
2023-04-27T12:30:49.904Z,45.54
2023-04-27T12:33:16.704Z,44.86
2023-04-27T12:35:43.215Z,43.82
2023-04-27T12:38:09.911Z,43.39
2023-04-27T12:40:36.586Z,43.00
2023-04-27T12:43:02.995Z,42.62
2023-04-27T12:45:29.430Z,42.17
2023-04-27T12:48:03.356Z,41.87
2023-04-27T12:50:32.390Z,42.66
2023-04-27T12:53:00.003Z,42.37
2023-04-27T12:55:33.600Z,42.44
2023-04-27T12:58:01.038Z,41.97
2023-04-27T13:00:27.651Z,41.68
2023-04-27T13:02:54.232Z,42.10
2023-04-27T13:05:22.311Z,41.91
2023-04-27T13:07:48.750Z,41.95
2023-04-27T13:10:15.378Z,43.11
2023-04-27T13:12:41.814Z,42.44
2023-04-27T13:15:09.046Z,41.38
2023-04-27T13:17:35.471Z,41.41
2023-04-27T13:20:01.958Z,41.75
2023-04-27T13:22:28.453Z,41.71
2023-04-27T13:24:54.996Z,41.10
2023-04-27T13:27:22.403Z,40.42
2023-04-27T13:29:51.130Z,40.25
2023-04-27T13:32:17.773Z,39.41
2023-04-27T13:34:44.306Z,39.91
2023-04-27T13:37:10.814Z,39.65
2023-04-27T13:39:37.638Z,39.54
2023-04-27T13:42:04.348Z,39.82
2023-04-27T13:44:31.678Z,39.39
2023-04-27T13:46:58.335Z,39.94
2023-04-27T13:49:24.786Z,39.67
2023-04-27T13:51:51.414Z,39.66
2023-04-27T13:54:17.836Z,40.64
2023-04-27T13:56:44.257Z,41.41
2023-04-27T13:59:10.662Z,40.36
2023-04-27T14:01:38.099Z,39.48
2023-04-27T14:04:04.752Z,39.63
2023-04-27T14:06:32.022Z,40.39
2023-04-27T14:08:58.451Z,39.90
2023-04-27T14:11:24.949Z,39.13
2023-04-27T14:13:51.586Z,39.02
2023-04-27T14:16:18.076Z,38.83
2023-04-27T14:18:44.668Z,38.59
2023-04-27T14:21:11.127Z,37.48
2023-04-27T14:23:37.533Z,36.81
2023-04-27T14:26:05.036Z,37.69
2023-04-27T14:28:31.442Z,38.05
2023-04-27T14:30:57.846Z,38.38
2023-04-27T14:33:24.238Z,39.00
2023-04-27T14:35:50.665Z,40.14
2023-04-27T14:38:17.079Z,40.25
2023-04-27T14:40:44.504Z,40.12
2023-04-27T14:43:11.069Z,40.55
2023-04-27T14:45:50.392Z,40.20
2023-04-27T14:48:19.100Z,40.44
2023-04-27T14:50:45.670Z,40.44
2023-04-27T14:53:12.097Z,41.15
2023-04-27T14:55:38.576Z,40.45
2023-04-27T14:58:05.011Z,40.49
2023-04-27T15:00:31.504Z,40.59
2023-04-27T15:02:58.007Z,40.13
2023-04-27T15:05:25.037Z,40.56
2023-04-27T15:07:51.519Z,39.43
2023-04-27T15:10:18.100Z,39.39
2023-04-27T15:12:44.488Z,39.51
2023-04-27T15:15:12.803Z,39.30
2023-04-27T15:17:39.352Z,39.09
2023-04-27T15:20:06.762Z,38.91
2023-04-27T15:22:33.343Z,38.34
2023-04-27T15:24:59.756Z,38.66
2023-04-27T15:27:26.333Z,38.79
2023-04-27T15:29:55.694Z,39.20
2023-04-27T15:32:24.547Z,39.07
2023-04-27T15:34:51.806Z,38.71
2023-04-27T15:37:18.386Z,38.79
2023-04-27T15:39:44.825Z,38.20
2023-04-27T15:42:11.308Z,38.57
2023-04-27T15:44:37.701Z,37.91
2023-04-27T15:47:04.594Z,38.81
2023-04-27T15:49:31.226Z,38.29
2023-04-27T15:51:57.647Z,38.83
2023-04-27T15:54:24.138Z,38.98
2023-04-27T15:56:50.987Z,38.86
2023-04-27T15:59:18.105Z,38.67
2023-04-27T16:01:44.507Z,38.72
2023-04-27T16:04:11.039Z,38.90
2023-04-27T16:06:37.562Z,39.62
2023-04-27T16:09:04.404Z,38.60
2023-04-27T16:11:31.512Z,38.82
2023-04-27T16:13:58.566Z,39.32
2023-04-27T16:16:25.140Z,39.15
2023-04-27T16:18:51.579Z,39.00
2023-04-27T16:21:18.081Z,38.88
2023-04-27T16:23:44.723Z,38.42
2023-04-27T16:26:11.461Z,38.11
2023-04-27T16:28:38.089Z,38.09
2023-04-27T16:31:04.675Z,38.60
2023-04-27T16:33:31.365Z,38.87
2023-04-27T16:35:57.817Z,39.33
2023-04-27T16:38:24.274Z,39.17
2023-04-27T16:40:52.571Z,39.55
2023-04-27T16:43:19.282Z,39.64
2023-04-27T16:45:45.730Z,39.85
2023-04-27T16:48:12.541Z,39.46
2023-04-27T16:50:39.068Z,39.73
2023-04-27T16:53:09.963Z,38.99
2023-04-27T16:55:36.453Z,38.35
2023-04-27T16:58:03.043Z,38.33
2023-04-27T17:00:29.635Z,38.39
2023-04-27T17:02:56.168Z,38.19
2023-04-27T17:05:22.752Z,38.06
2023-04-27T17:07:49.143Z,38.43
2023-04-27T17:10:16.758Z,38.74
2023-04-27T17:12:43.181Z,38.75
2023-04-27T17:15:10.805Z,39.84
2023-04-27T17:17:37.493Z,39.73
2023-04-27T17:20:06.317Z,40.00
2023-04-27T17:22:33.042Z,40.50
2023-04-27T17:24:59.437Z,40.22
2023-04-27T17:27:26.052Z,42.10
2023-04-27T17:29:54.080Z,40.57
2023-04-27T17:32:20.568Z,40.49
2023-04-27T17:34:47.178Z,41.29
2023-04-27T17:37:14.797Z,41.08
2023-04-27T17:39:41.447Z,40.82
2023-04-27T17:42:12.011Z,41.05
2023-04-27T17:44:39.523Z,41.96
2023-04-27T17:47:05.942Z,42.87
2023-04-27T17:49:32.885Z,41.37
2023-04-27T17:51:59.304Z,42.25
2023-04-27T17:54:28.766Z,41.29
2023-04-27T17:56:56.565Z,41.92
2023-04-27T17:59:23.014Z,42.33
2023-04-27T18:01:49.486Z,43.28
2023-04-27T18:04:16.019Z,44.01
2023-04-27T18:06:42.578Z,45.10
2023-04-27T18:09:09.012Z,45.95
2023-04-27T18:11:36.252Z,46.83
2023-04-27T18:14:03.638Z,46.15
2023-04-27T18:16:30.123Z,46.77
2023-04-27T18:18:56.528Z,48.10
2023-04-27T18:21:22.973Z,47.60
2023-04-27T18:23:49.373Z,48.86
2023-04-27T18:26:16.511Z,48.66
2023-04-27T18:28:42.990Z,48.88
2023-04-27T18:31:16.850Z,49.60
2023-04-27T18:33:44.911Z,49.53
2023-04-27T18:36:11.513Z,49.11
2023-04-27T18:38:38.175Z,49.53
2023-04-27T18:41:04.756Z,48.82
2023-04-27T18:43:31.249Z,48.93
2023-04-27T18:45:57.717Z,48.88
2023-04-27T18:48:24.195Z,49.53
2023-04-27T18:50:50.601Z,49.59
2023-04-27T18:53:17.104Z,50.92
2023-04-27T18:55:43.549Z,50.38
2023-04-27T18:58:10.223Z,50.90
2023-04-27T19:00:38.315Z,50.63
2023-04-27T19:03:05.724Z,51.60
2023-04-27T19:05:32.441Z,51.72
2023-04-27T19:07:59.037Z,51.12
2023-04-27T19:10:25.499Z,50.13
2023-04-27T19:12:51.924Z,50.70
2023-04-27T19:15:18.365Z,51.20
2023-04-27T19:17:45.121Z,51.06
2023-04-27T19:20:13.545Z,50.99
2023-04-27T19:22:40.004Z,51.67
2023-04-27T19:25:06.841Z,51.88
2023-04-27T19:27:33.333Z,52.40
2023-04-27T19:29:59.772Z,52.60
2023-04-27T19:32:29.051Z,52.72
2023-04-27T19:34:56.869Z,52.73
2023-04-27T19:37:24.565Z,53.46
2023-04-27T19:39:51.151Z,53.31
2023-04-27T19:42:17.586Z,53.25
2023-04-27T19:44:43.993Z,53.80
2023-04-27T19:47:10.850Z,54.20
2023-04-27T19:49:37.546Z,55.34
2023-04-27T19:52:05.140Z,55.58
2023-04-27T19:54:31.539Z,55.47
2023-04-27T19:56:57.960Z,55.41
2023-04-27T19:59:24.384Z,55.17
2023-04-27T20:01:50.849Z,55.73
2023-04-27T20:04:18.130Z,55.36
2023-04-27T20:06:45.206Z,56.16
2023-04-27T20:09:11.775Z,56.23
2023-04-27T20:11:38.367Z,57.09
2023-04-27T20:14:04.802Z,57.17
2023-04-27T20:16:31.293Z,57.21
2023-04-27T20:18:57.831Z,56.94
2023-04-27T20:21:24.237Z,56.24
2023-04-27T20:23:50.689Z,58.07
2023-04-27T20:26:17.119Z,58.57
2023-04-27T20:28:43.525Z,58.02
2023-04-27T20:31:09.978Z,58.07
2023-04-27T20:33:36.488Z,58.21
2023-04-27T20:36:14.231Z,58.39
2023-04-27T20:38:44.376Z,58.87
2023-04-27T20:41:12.312Z,58.80
2023-04-27T20:43:41.586Z,58.51
2023-04-27T20:46:08.185Z,59.15
2023-04-27T20:48:34.677Z,59.03
2023-04-27T20:51:01.128Z,59.26
2023-04-27T20:53:27.937Z,58.99
2023-04-27T20:55:54.377Z,59.03
2023-04-27T20:58:20.947Z,59.26
2023-04-27T21:00:47.398Z,58.88
2023-04-27T21:03:14.173Z,59.55
2023-04-27T21:05:41.365Z,59.49
2023-04-27T21:08:07.775Z,60.17
2023-04-27T21:10:35.452Z,60.09
2023-04-27T21:13:04.065Z,60.28
2023-04-27T21:15:30.550Z,60.37
2023-04-27T21:17:57.083Z,59.84
2023-04-27T21:20:23.738Z,60.54
2023-04-27T21:22:50.167Z,61.40
2023-04-27T21:25:16.593Z,61.47
2023-04-27T21:27:43.049Z,61.67
2023-04-27T21:30:10.130Z,61.62
2023-04-27T21:32:36.646Z,62.43
2023-04-27T21:35:03.138Z,62.67
2023-04-27T21:37:29.549Z,62.71
2023-04-27T21:39:55.977Z,62.40
2023-04-27T21:42:22.382Z,63.06
2023-04-27T21:44:48.783Z,62.81
2023-04-27T21:47:15.186Z,62.83
2023-04-27T21:49:41.625Z,64.00
2023-04-27T21:52:08.039Z,63.55
2023-04-27T21:54:34.482Z,63.59
2023-04-27T21:57:00.910Z,63.70
2023-04-27T21:59:27.331Z,63.84
2023-04-27T22:01:53.866Z,63.86
2023-04-27T22:04:20.680Z,64.46
2023-04-27T22:06:48.314Z,65.07
2023-04-27T22:09:14.744Z,65.41
2023-04-27T22:11:41.169Z,65.21
2023-04-27T22:14:07.564Z,65.57
2023-04-27T22:16:34.061Z,65.47
2023-04-27T22:19:00.537Z,65.38
2023-04-27T22:21:28.809Z,65.78
2023-04-27T22:23:55.263Z,66.04
2023-04-27T22:26:21.721Z,66.55
2023-04-27T22:28:48.405Z,67.63
2023-04-27T22:31:14.855Z,66.25
2023-04-27T22:33:41.332Z,67.03
2023-04-27T22:36:08.014Z,67.09
2023-04-27T22:38:34.422Z,67.49
2023-04-27T22:41:00.887Z,67.25
2023-04-27T22:43:27.297Z,66.56
2023-04-27T22:45:53.692Z,67.43
2023-04-27T22:48:20.077Z,67.53
2023-04-27T22:50:46.809Z,67.54
2023-04-27T22:53:13.258Z,67.88
2023-04-27T22:55:39.651Z,68.43
2023-04-27T22:58:06.071Z,67.30
2023-04-27T23:00:32.493Z,68.75
2023-04-27T23:02:59.062Z,68.13
2023-04-27T23:05:25.619Z,69.34
2023-04-27T23:07:52.046Z,69.22
2023-04-27T23:10:18.876Z,68.41
2023-04-27T23:12:45.397Z,68.95
2023-04-27T23:15:12.418Z,69.44
2023-04-27T23:17:39.014Z,69.93
2023-04-27T23:20:11.151Z,69.60
2023-04-27T23:22:43.877Z,69.82
2023-04-27T23:25:10.586Z,69.25
2023-04-27T23:27:37.019Z,69.71
2023-04-27T23:30:04.254Z,69.72
2023-04-27T23:32:30.667Z,70.44
2023-04-27T23:34:57.077Z,70.43
2023-04-27T23:37:24.268Z,71.05
2023-04-27T23:39:50.724Z,70.71
2023-04-27T23:42:17.142Z,70.85
2023-04-27T23:44:43.769Z,71.61
2023-04-27T23:47:10.191Z,71.38
2023-04-27T23:49:36.604Z,72.34
2023-04-27T23:52:03.033Z,71.98
2023-04-27T23:54:31.441Z,71.82
2023-04-27T23:56:57.883Z,71.79
2023-04-27T23:59:24.348Z,71.49
